FSIA

Seychelles International Airport

Mahe Island, Seychelles
METAR FSIA 200100Z 27007KT 9999 SCT019 25/23 Q1010 NOSIG
Observed Flight Rules
Jan-20 @ 01:00 UTC (26 minutes ago) Visual Flight Rules
Wind Visibility Clouds
270° at 7 knots 10,000+ meters
  • Scattered at 1,900' AGL
Temperatures Readings
Current 25°C / 77°F
Dewpoint 23°C / 73°F
Humidity 89%
Altimeter 29.82" Hg
Pressure 1010 hPa
Elevation 3
METAR FSIA 200100Z 27007KT 9999 SCT019 25/23 Q1010 NOSIG
Observed Flight Rules
Jan-20 @ 01:00 UTC
(26 minutes ago)
VFR
Wind Visibility
270° at 7 knots 10,000+ meters
Clouds
  • Scattered at 1,900' AGL
Temperature Dewpoint
25°C / 77°F 23°C / 73°F
Humidity Altimeter Pressure
89% 29.82" Hg 1010 hPa